Date,TemperatureHighF,TemperatureAvgF,TemperatureLowF,DewpointHighF,DewpointAvgF,DewpointLowF,HumidityHigh,HumidityAvg,HumidityLow,PressureMaxIn,PressureMinIn,WindSpeedMaxMPH,WindSpeedAvgMPH,GustSpeedMaxMPH,PrecipitationSumIn
2013-1-1,18,9,3,10,2,-100,88,78,60,30.66,30.32,11,-10,11,0.01
2013-1-2,22,10,2,9,3,-5,86,74,57,30.70,30.56,3,0,9,0.00
2013-1-3,20,6,-4,4,-3,-9,79,67,47,30.84,30.70,6,1,7,0.00
2013-1-4,28,12,2,8,1,-5,77,64,43,30.81,30.55,4,1,5,0.00
2013-1-5,31,14,4,10,3,-2,79,63,38,30.75,30.61,5,1,7,0.01
2013-1-6,32,17,7,10,4,-2,69,57,38,30.71,30.38,6,1,8,0.00
2013-1-7,36,21,12,13,6,1,66,53,38,30.39,30.22,5,1,8,0.00
2013-1-8,34,22,13,14,8,2,72,57,43,30.63,30.25,7,1,10,0.00
2013-1-9,37,24,13,18,12,7,78,62,45,30.65,30.28,7,1,8,0.00
2013-1-10,38,27,17,25,14,8,90,61,32,30.27,29.58,25,5,37,0.00
2013-1-11,34,16,6,22,9,0,91,75,54,30.05,29.39,27,9,39,0.00
2013-1-12,13,4,-4,2,-3,-10,82,70,51,30.34,30.06,7,1,10,0.00
2013-1-13,11,2,-4,2,-4,-8,83,78,63,30.46,30.32,7,0,11,0.00
2013-1-14,9,-2,-10,-3,-9,-16,84,73,55,30.73,30.46,8,1,10,0.00
2013-1-15,8,-2,-12,-4,-10,-18,86,68,54,31.06,30.73,5,0,7,0.00
2013-1-16,29,12,0,9,2,-7,79,66,44,31.07,30.86,4,0,5,0.01
2013-1-17,35,19,9,16,10,4,84,70,44,30.90,30.69,5,1,6,0.00
2013-1-18,33,17,10,15,10,6,83,74,49,30.70,30.57,4,1,5,0.00
2013-1-19,39,26,11,14,9,3,74,51,33,30.69,30.57,4,0,10,0.00
2013-1-20,40,24,12,12,6,1,65,49,28,30.60,30.44,5,1,6,0.00
2013-1-21,41,24,12,13,6,1,62,47,32,30.60,30.46,5,1,6,0.00
2013-1-22,42,25,13,12,4,-2,53,42,26,30.58,30.48,5,1,7,0.00
2013-1-23,41,28,16,14,4,-2,47,37,23,30.61,30.45,4,0,5,0.00
2013-1-24,40,30,22,29,18,7,94,64,34,30.47,30.32,12,1,15,0.00
2013-1-25,38,32,29,36,31,28,96,94,84,30.40,30.24,2,0,5,0.09
2013-1-26,39,32,28,33,30,27,96,91,73,30.23,29.81,4,0,7,0.01
2013-1-27,41,34,29,34,28,23,96,81,59,29.93,29.75,20,3,30,0.30
2013-1-28,35,25,14,29,23,12,95,92,67,29.86,29.64,16,4,24,0.01
2013-1-29,16,11,4,14,8,1,92,87,84,30.33,29.86,10,2,13,0.00
2013-1-30,18,13,7,16,11,5,92,89,87,30.50,30.33,6,0,10,0.00
2013-1-31,32,23,18,28,20,16,92,88,79,30.59,30.44,9,1,14,0.11
2013-2-1,31,26,21,24,21,17,90,82,72,30.51,30.36,17,2,19,0.01
2013-2-2,38,24,11,20,15,7,87,72,47,30.68,30.51,5,1,6,0.05
2013-2-3,36,24,16,19,14,10,83,66,43,30.55,30.24,11,1,20,0.01
2013-2-4,36,23,10,20,13,6,85,66,45,30.37,30.27,5,1,15,0.00
2013-2-5,44,26,13,20,14,7,78,62,38,30.39,30.12,4,1,7,0.00
2013-2-6,38,28,20,28,21,14,93,76,56,30.21,30.00,7,1,13,0.00
2013-2-7,39,25,14,20,13,5,91,66,26,30.37,30.20,6,2,8,0.01
2013-2-8,41,28,14,25,15,5,79,60,39,30.21,29.77,20,3,27,0.00
2013-2-9,30,23,14,23,18,9,93,83,69,29.83,29.58,10,2,18,0.11
2013-2-10,28,18,11,13,10,6,85,72,51,30.14,29.84,5,1,8,0.01
2013-2-11,24,15,8,15,10,4,86,79,60,30.36,30.11,13,3,18,0.00
2013-2-12,26,14,4,8,5,-2,92,68,45,30.55,30.37,7,0,11,0.01
2013-2-13,31,22,14,18,13,9,82,70,57,30.56,30.35,4,0,9,0.00
2013-2-14,30,23,19,21,16,11,96,73,58,30.44,30.30,15,3,20,0.00
2013-2-15,29,21,15,16,12,7,83,68,53,30.65,30.44,16,3,21,0.00
2013-2-16,38,23,9,17,10,4,79,60,42,30.68,30.35,8,1,11,0.00
2013-2-17,41,27,16,21,11,5,87,55,29,30.34,29.80,23,4,25,0.00
2013-2-18,28,18,8,16,7,1,87,62,42,30.33,29.95,10,2,14,0.00
2013-2-19,39,22,4,11,3,-4,69,48,25,30.34,29.91,5,1,6,0.00
2013-2-20,37,26,18,23,12,3,93,58,39,29.91,29.56,11,2,17,0.00
2013-2-21,27,23,18,21,17,12,92,79,63,30.02,29.66,15,4,18,0.03
2013-2-22,26,17,9,16,10,2,90,75,49,30.28,30.02,14,3,17,0.06
2013-2-23,31,16,4,19,10,-1,92,77,54,30.28,29.93,11,1,16,0.00
2013-2-24,22,17,11,17,10,-100,91,79,66,30.32,29.87,24,-4,28,0.06
2013-2-25,29,16,2,13,6,-2,82,65,43,30.47,30.19,6,1,9,0.01
2013-2-26,21,17,9,15,11,5,89,78,63,30.44,30.07,13,3,22,0.02
2013-2-27,27,14,3,10,4,-2,84,65,37,30.65,30.44,13,2,14,0.02
2013-2-28,30,16,2,18,3,-100,89,62,38,30.76,30.65,12,-19,15,0.00
2013-3-1,36,26,19,25,21,16,91,79,63,30.70,30.60,10,1,13,0.04
2013-3-2,48,34,21,25,21,17,84,63,40,30.64,30.22,4,0,7,0.00
2013-3-3,42,34,28,30,24,19,95,69,48,30.22,29.82,17,3,30,0.00
2013-3-4,33,24,10,32,13,-100,96,75,51,30.36,29.77,23,-47,28,0.19
2013-3-5,44,21,4,17,7,-1,79,57,29,30.64,30.38,5,1,8,0.07
2013-3-6,48,36,19,23,16,4,65,46,34,30.42,29.96,21,5,29,0.07
2013-3-7,49,42,34,20,16,12,46,36,26,29.96,29.82,17,6,27,0.00
2013-3-8,48,36,29,29,20,12,93,56,31,29.86,29.62,14,2,19,0.00
2013-3-9,30,26,18,28,24,13,94,90,81,30.20,29.59,18,5,25,0.12
2013-3-10,34,22,10,22,14,6,84,75,60,30.47,30.20,7,1,10,0.16
2013-3-11,40,28,16,26,18,12,84,68,47,30.47,30.21,11,2,18,0.16
2013-3-12,44,35,29,26,24,22,80,65,46,30.34,30.25,14,2,18,0.00
2013-3-13,50,37,24,27,22,18,78,57,34,30.45,30.34,8,1,12,0.00
2013-3-14,55,40,26,26,22,16,67,49,30,30.45,30.27,7,1,10,0.00
2013-3-15,57,43,32,27,24,19,62,49,30,30.27,29.92,10,2,18,0.00
2013-3-16,44,39,31,33,29,23,86,68,54,29.93,29.77,11,3,20,0.00
2013-3-17,39,32,28,33,22,-100,94,71,42,29.94,29.69,23,-4,34,0.10
2013-3-18,38,30,23,17,13,8,60,49,37,30.12,29.95,23,9,30,0.10
2013-3-19,41,33,24,14,7,-1,60,36,19,30.32,30.10,12,3,21,0.00
2013-3-20,43,30,17,29,12,-2,84,49,31,30.32,29.96,19,2,28,0.00
2013-3-21,36,31,25,33,26,17,95,83,65,29.97,29.68,15,2,28,0.28
2013-3-22,37,25,16,18,14,12,86,65,39,29.95,29.73,21,4,31,0.28
2013-3-23,24,17,8,14,9,0,83,71,50,30.36,29.88,15,5,22,0.00
2013-3-24,23,12,3,12,2,-4,83,66,45,30.53,30.36,23,4,23,0.00
2013-3-25,34,17,-1,6,0,-7,75,52,27,30.62,30.46,5,1,13,0.00
2013-3-26,48,30,14,23,12,-100,68,49,34,30.49,30.05,13,-10,16,0.00
2013-3-27,51,40,28,27,23,18,74,52,31,30.06,29.94,12,2,15,0.00
2013-3-28,55,41,28,27,22,16,61,47,32,30.09,30.00,17,1,26,0.00
2013-3-29,54,44,36,32,26,22,79,52,36,30.12,30.01,16,2,26,0.00
2013-3-30,54,42,30,32,27,24,83,60,34,30.15,30.02,21,3,27,0.00
2013-3-31,57,42,27,30,24,19,77,51,30,30.13,29.95,12,3,16,0.00
2013-4-1,55,42,33,35,26,19,77,54,31,29.98,29.74,23,3,24,0.00
2013-4-2,47,37,30,34,31,27,93,80,50,30.01,29.82,16,5,22,0.08
2013-4-3,53,39,30,32,27,21,91,65,37,30.16,30.01,11,2,16,0.08
2013-4-4,60,45,29,31,24,21,73,46,27,30.22,29.97,16,3,28,0.00
2013-4-5,58,46,37,35,27,19,90,51,30,29.98,29.67,22,6,37,0.02
2013-4-6,55,42,31,36,30,22,92,66,30,29.94,29.84,19,4,26,0.02
2013-4-7,49,42,30,37,28,20,90,62,37,29.88,29.65,17,3,28,0.02
2013-4-8,54,42,34,33,27,20,93,57,29,29.65,29.24,19,3,29,0.04
2013-4-9,34,24,13,32,22,10,94,91,88,30.08,29.33,21,6,23,0.04
2013-4-10,31,19,6,24,14,4,89,80,58,30.34,30.08,14,3,20,0.03
2013-4-11,45,31,23,32,24,16,89,76,53,30.26,29.96,15,2,20,0.02
2013-4-12,51,38,30,36,26,16,95,66,26,29.98,29.87,13,2,29,0.07
2013-4-13,52,41,29,35,23,18,93,54,28,29.90,29.39,42,10,44,0.10
2013-4-14,38,31,22,30,22,16,95,71,44,29.74,29.50,19,4,30,0.33
2013-4-15,34,30,27,30,27,22,95,90,65,29.80,29.57,11,2,27,0.08
2013-4-16,49,34,24,32,26,22,94,76,42,29.81,29.59,31,7,49,0.15
2013-4-17,27,22,15,22,17,9,93,83,70,30.22,29.71,16,5,22,0.15
2013-4-18,27,19,11,17,10,7,85,70,51,30.57,30.23,16,5,21,0.00
2013-4-19,41,26,12,27,16,7,92,68,46,30.57,30.22,14,2,19,0.01
2013-4-20,46,34,28,34,30,26,95,86,61,30.22,30.01,13,2,25,0.13
2013-4-21,51,39,30,35,28,17,95,68,27,30.20,29.96,18,3,24,0.07
2013-4-22,50,42,30,33,26,20,91,56,36,29.96,29.73,21,7,30,0.01
2013-4-23,37,30,22,28,18,8,93,64,34,30.25,29.85,20,7,25,0.03
2013-4-24,47,32,19,17,13,7,74,49,25,30.34,30.23,14,3,22,0.03
2013-4-25,59,41,25,23,17,10,60,39,23,30.28,29.91,15,3,20,0.00
2013-4-26,61,45,30,22,18,15,57,36,19,30.17,30.00,15,3,26,0.00
2013-4-27,62,47,30,25,20,16,57,37,21,30.22,30.01,17,4,23,0.00
2013-4-28,67,51,33,30,24,18,56,36,22,30.05,29.77,14,3,23,0.00
2013-4-29,68,56,40,31,27,22,58,35,21,29.82,29.51,21,6,32,0.00
2013-4-30,64,55,39,34,28,23,81,37,26,29.56,29.36,35,6,37,0.00
2013-5-1,40,32,27,33,20,-100,95,71,43,30.42,29.57,13,-42,21,0.42
2013-5-2,45,32,19,23,18,13,80,58,35,30.70,30.43,13,2,19,0.01
2013-5-3,59,40,22,24,18,13,70,45,19,30.53,29.99,10,1,16,0.01
2013-5-4,62,47,31,29,23,18,61,41,21,29.99,29.77,14,3,29,0.00
2013-5-5,60,49,38,34,27,21,64,45,22,29.90,29.79,14,4,25,0.00
2013-5-6,58,45,36,41,34,26,94,67,40,29.91,29.71,15,3,20,0.36
2013-5-7,51,42,36,41,37,35,95,84,58,29.99,29.91,14,2,23,0.06
2013-5-8,44,36,33,39,34,31,95,92,83,30.08,29.91,16,2,22,0.28
2013-5-9,54,41,33,40,35,32,100,82,53,30.14,30.07,14,3,20,0.08
2013-5-10,59,45,32,38,32,28,88,62,37,30.21,30.10,28,4,34,0.08
2013-5-11,64,49,34,36,30,26,72,50,28,30.30,30.10,11,2,20,0.00
2013-5-12,68,54,41,38,33,29,67,47,28,30.18,29.99,9,2,16,0.00
2013-5-13,74,58,43,41,35,30,64,45,25,30.12,29.87,11,2,19,0.00
2013-5-14,75,56,44,43,37,32,70,51,27,29.91,29.70,26,3,36,0.00
2013-5-15,68,53,42,44,39,36,83,61,38,29.84,29.69,17,3,24,0.00
2013-5-16,68,55,38,44,37,31,90,56,31,29.82,29.64,19,2,26,0.00
2013-5-17,70,58,45,32,26,21,53,31,17,29.72,29.59,32,7,36,0.00
2013-5-18,61,48,38,40,32,23,92,58,31,29.82,29.62,20,4,39,0.10
2013-5-19,49,41,33,39,34,31,92,79,57,29.93,29.80,11,2,18,0.04
2013-5-20,50,42,37,42,35,31,89,77,54,30.04,29.91,14,3,19,0.09
2013-5-21,61,47,34,38,33,29,85,61,35,30.06,29.82,18,3,21,0.09
2013-5-22,71,56,37,40,31,24,74,44,20,29.82,29.60,24,5,29,0.00
2013-5-23,75,63,48,36,28,20,48,28,16,29.66,29.50,30,8,40,0.00
2013-5-24,71,62,52,31,25,19,35,24,19,29.71,29.57,28,11,40,0.00
2013-5-25,73,59,43,29,24,21,43,27,17,29.80,29.66,23,6,31,0.00
2013-5-26,74,60,44,32,25,19,47,28,16,29.75,29.59,21,6,36,0.00
2013-5-27,68,57,43,32,24,17,39,29,22,29.68,29.53,14,2,20,0.00
2013-5-28,69,54,40,38,29,23,58,39,23,29.59,29.40,28,6,32,0.00
2013-5-29,53,43,36,44,37,33,94,81,57,29.75,29.48,15,4,20,0.24
2013-5-30,58,48,37,35,30,24,84,54,33,29.85,29.73,18,6,30,0.24
2013-5-31,60,50,36,29,24,17,64,38,22,29.99,29.81,20,5,27,0.00
2013-6-1,67,51,33,34,28,20,65,43,26,30.12,29.95,16,2,18,0.00
2013-6-2,76,57,36,38,31,26,68,41,22,30.01,29.66,16,3,24,0.00
2013-6-3,76,62,46,40,32,26,47,33,21,29.67,29.52,21,4,38,0.00
2013-6-4,76,60,43,40,34,25,60,41,22,29.75,29.61,22,4,29,0.00
2013-6-5,71,59,43,41,34,29,67,42,24,29.83,29.72,17,4,23,0.00
2013-6-6,75,58,39,40,34,27,64,43,24,29.90,29.75,16,3,37,0.00
2013-6-7,76,58,45,44,37,33,68,48,26,29.83,29.64,12,2,24,0.00
2013-6-8,76,62,47,45,38,32,63,44,25,29.74,29.63,19,5,23,0.00
2013-6-9,81,65,45,46,37,29,57,37,23,29.84,29.68,11,2,17,0.00
2013-6-10,85,68,49,47,37,29,55,34,17,29.74,29.54,20,4,30,0.00
2013-6-11,79,69,55,36,30,25,35,24,17,29.73,29.54,28,9,39,0.00
2013-6-12,82,65,46,43,33,26,50,32,18,29.86,29.74,17,5,30,0.00
2013-6-13,80,66,51,44,35,26,52,32,21,29.80,29.60,30,6,37,0.00
2013-6-14,79,67,52,45,34,22,53,32,18,29.68,29.54,14,3,27,0.00
2013-6-15,77,60,42,37,30,20,48,34,21,29.86,29.65,27,5,34,0.00
2013-6-16,70,57,47,47,39,32,68,52,38,29.95,29.84,13,3,22,0.00
2013-6-17,75,60,43,47,39,35,75,50,26,29.98,29.79,12,2,20,0.00
2013-6-18,78,63,46,47,35,20,66,39,18,29.84,29.56,15,3,32,0.00
2013-6-19,80,66,47,40,25,18,45,23,12,29.61,29.44,28,8,37,0.00
2013-6-20,78,64,45,36,26,17,42,24,16,29.63,29.51,25,6,37,0.00
2013-6-21,79,64,46,34,27,20,40,25,15,29.68,29.55,21,6,27,0.00
2013-6-22,77,64,52,36,28,21,38,26,18,29.65,29.53,26,7,33,0.00
2013-6-23,77,61,42,38,30,21,53,33,21,29.75,29.55,17,3,22,0.00
2013-6-24,77,63,47,32,27,24,44,27,16,29.66,29.56,24,9,33,0.00
2013-6-25,77,66,54,42,35,26,45,32,25,29.76,29.60,12,4,21,0.00
2013-6-26,85,67,47,46,39,33,59,38,21,29.89,29.76,14,2,19,0.00
2013-6-27,89,70,53,45,39,32,51,33,16,29.97,29.80,7,2,33,0.00
2013-6-28,92,71,56,50,41,33,49,35,19,29.90,29.71,11,2,25,0.00
2013-6-29,86,68,56,52,44,38,57,43,26,29.83,29.66,17,2,24,0.00
2013-6-30,83,66,51,50,45,40,67,48,30,29.85,29.70,11,1,15,0.01
2013-7-1,85,67,50,47,42,36,69,44,20,29.93,29.75,14,4,20,0.00
2013-7-2,83,66,52,47,42,35,63,43,25,29.87,29.70,13,3,25,0.00
2013-7-3,83,63,49,45,40,35,61,46,22,29.82,29.65,12,3,25,0.00
2013-7-4,82,66,48,50,44,39,74,48,22,29.80,29.60,11,1,16,0.00
2013-7-5,82,68,54,54,50,42,84,55,32,29.69,29.49,13,2,18,0.01
2013-7-6,81,65,53,53,49,44,83,60,29,29.70,29.56,9,1,20,0.01
2013-7-7,84,68,54,50,46,44,71,48,26,29.82,29.59,24,2,24,0.01
2013-7-8,84,64,48,54,48,41,93,62,24,29.87,29.77,24,2,24,0.06
2013-7-9,85,70,55,48,43,39,62,40,22,29.92,29.77,12,2,17,0.00
2013-7-10,89,73,57,50,42,38,55,35,18,29.82,29.59,13,2,24,0.00
2013-7-11,90,70,57,53,45,37,73,44,18,29.70,29.48,17,2,28,0.03
2013-7-12,81,63,53,57,52,48,92,71,39,29.82,29.61,15,2,19,0.38
2013-7-13,80,64,54,58,54,50,92,72,42,29.87,29.75,13,2,22,0.09
2013-7-14,82,66,54,56,52,49,92,64,36,29.91,29.73,20,3,27,0.03
2013-7-15,85,65,54,57,51,46,81,62,32,29.80,29.59,18,2,27,0.04
2013-7-16,87,68,52,55,50,46,83,57,26,29.80,29.65,12,2,21,0.04
2013-7-17,86,65,55,59,45,-100,76,56,31,29.85,29.69,21,-40,21,0.02
2013-7-18,84,65,53,55,51,46,91,63,32,29.92,29.73,21,3,30,0.01
2013-7-19,85,67,52,56,49,38,91,58,20,29.89,29.68,14,2,24,0.01
2013-7-20,85,66,52,52,44,35,77,50,18,29.76,29.57,8,1,12,0.00
2013-7-21,86,69,51,43,36,31,49,32,15,29.71,29.57,11,2,17,0.00
2013-7-22,89,72,57,45,36,26,47,29,12,29.74,29.59,13,2,16,0.00
2013-7-23,89,69,51,39,31,25,38,25,14,29.78,29.64,11,2,16,0.00
2013-7-24,77,68,59,47,40,28,51,37,22,29.76,29.66,23,4,36,0.00
2013-7-25,79,65,54,51,47,43,84,56,33,29.91,29.73,19,3,24,0.01
2013-7-26,84,67,48,50,43,37,83,49,23,30.00,29.80,13,2,16,0.01
2013-7-27,79,62,53,55,45,36,86,57,34,29.84,29.64,23,2,26,0.15
2013-7-28,68,57,51,59,52,48,97,85,56,29.81,29.72,12,1,16,0.12
2013-7-29,70,57,50,57,51,47,95,79,53,30.00,29.80,12,1,16,0.07
2013-7-30,78,61,45,50,46,41,87,60,33,30.12,30.00,16,2,22,0.02
2013-7-31,82,64,48,51,44,39,77,51,24,30.10,29.88,11,1,17,0.02
2013-8-1,66,56,51,53,47,38,93,72,49,29.92,29.87,22,3,29,0.03
2013-8-2,79,63,48,54,49,45,94,65,36,29.98,29.81,7,1,16,0.03
2013-8-3,81,65,52,52,47,44,75,54,30,29.91,29.77,14,2,19,0.00
2013-8-4,80,60,48,54,48,43,92,66,29,29.94,29.81,12,2,26,0.05
2013-8-5,75,59,47,55,48,45,92,71,38,29.97,29.85,10,1,19,0.05
2013-8-6,76,59,47,53,47,41,87,67,38,29.89,29.80,13,1,28,0.00
2013-8-7,70,58,49,48,45,42,80,64,40,29.90,29.81,14,2,23,0.00
2013-8-8,73,58,49,50,44,42,80,63,36,29.94,29.80,10,1,17,0.15
2013-8-9,71,58,45,48,43,38,82,60,35,30.05,29.92,9,1,15,0.15
2013-8-10,76,58,45,47,41,36,76,56,26,30.05,29.93,15,2,29,0.00
2013-8-11,78,60,43,46,41,37,84,53,27,30.08,29.91,15,2,19,0.00
2013-8-12,76,59,45,44,40,35,70,52,28,29.99,29.86,12,2,23,0.00
2013-8-13,75,57,43,51,42,38,84,61,29,30.03,29.93,10,2,21,0.03
2013-8-14,79,68,54,45,37,33,49,34,20,30.00,29.87,11,3,19,0.00
2013-8-15,83,63,45,42,35,32,64,40,18,29.99,29.85,15,2,21,0.00
2013-8-16,88,67,47,40,32,29,53,31,13,29.98,29.79,14,2,17,0.00
2013-8-17,87,68,51,43,36,28,47,33,16,29.92,29.71,16,2,20,0.00
2013-8-18,81,64,53,50,44,39,74,49,29,29.91,29.75,17,2,21,0.00
2013-8-19,88,67,47,50,43,33,82,49,15,29.98,29.74,13,2,16,0.00
2013-8-20,84,65,53,53,45,40,91,53,25,29.85,29.66,14,2,24,0.06
2013-8-21,84,65,47,54,47,42,91,59,24,29.93,29.81,9,1,17,0.07
2013-8-22,81,66,56,53,47,42,84,53,32,29.90,29.68,10,2,16,0.01
2013-8-23,80,62,50,55,50,46,89,69,31,29.84,29.66,19,3,32,0.01
2013-8-24,76,61,49,52,46,41,90,62,29,29.89,29.80,16,2,25,0.02
2013-8-25,72,60,54,58,50,44,94,70,45,29.96,29.87,9,1,24,0.08
2013-8-26,74,62,54,55,53,50,95,74,50,30.00,29.88,12,1,17,0.08
2013-8-27,82,65,51,55,51,47,88,65,31,29.96,29.74,15,2,23,0.13
2013-8-28,84,66,52,55,50,46,87,61,28,29.88,29.74,13,3,21,0.01
2013-8-29,87,67,50,52,48,44,83,54,23,29.95,29.80,15,2,19,0.01
2013-8-30,84,65,54,53,49,45,75,58,30,29.93,29.77,15,2,21,0.00
2013-8-31,82,64,52,53,50,47,84,63,31,29.89,29.73,23,3,31,0.00
2013-9-1,82,65,50,54,49,42,88,60,29,29.87,29.73,13,1,24,0.00
2013-9-2,84,67,53,52,47,44,76,52,30,29.88,29.70,14,3,20,0.00
2013-9-3,85,68,53,51,47,44,74,50,27,29.89,29.75,15,2,18,0.00
2013-9-4,87,69,58,51,48,44,63,49,27,29.91,29.76,15,2,20,0.00
2013-9-5,86,68,53,52,48,43,72,52,28,29.95,29.77,21,4,27,0.00
2013-9-6,80,61,55,52,46,-100,83,65,32,29.93,29.75,11,-22,19,0.04
2013-9-7,84,63,48,53,47,42,87,60,24,29.93,29.73,9,2,23,0.04
2013-9-8,83,63,50,52,48,44,81,60,27,29.84,29.59,16,3,22,0.01
2013-9-9,64,55,49,55,51,47,93,86,73,29.82,29.68,13,2,23,0.01
2013-9-10,63,56,50,57,52,49,96,88,75,29.90,29.82,9,2,15,0.03
2013-9-11,70,57,52,56,51,-100,93,82,59,29.93,29.85,16,-8,22,0.04
2013-9-12,77,57,47,56,51,45,94,82,44,30.00,29.85,9,2,21,0.25
2013-9-13,72,58,50,55,49,44,97,75,40,29.92,29.67,11,1,12,0.44
2013-9-14,67,55,48,53,47,44,95,78,52,29.83,29.70,9,1,16,0.06
2013-9-15,67,54,47,53,48,44,94,81,49,29.98,29.84,10,1,15,0.08
2013-9-16,70,55,44,53,47,43,95,76,46,30.04,29.89,12,1,16,0.09
2013-9-17,73,55,43,52,45,40,89,72,34,29.95,29.70,13,2,24,0.02
2013-9-18,69,54,46,50,46,43,90,76,44,29.81,29.65,22,4,33,0.27
2013-9-19,66,51,41,47,39,26,94,67,32,30.01,29.82,10,2,16,0.30
2013-9-20,71,51,34,37,32,28,78,51,27,30.09,29.92,10,1,15,0.00
2013-9-21,73,57,41,42,35,28,67,47,27,29.97,29.66,23,3,29,0.00
2013-9-22,61,49,38,50,43,37,95,80,53,29.70,29.45,24,3,33,0.54
2013-9-23,56,44,38,42,36,32,96,77,43,30.15,29.63,14,2,20,0.06
2013-9-24,68,48,31,39,30,21,90,57,21,30.22,29.88,18,2,21,0.07
2013-9-25,70,57,43,33,28,-100,52,35,21,29.87,29.36,33,-1,45,0.00
2013-9-26,70,60,49,34,28,24,47,31,21,29.45,29.32,30,11,32,0.00
2013-9-27,54,39,27,41,34,26,94,82,46,30.13,29.40,16,6,25,0.03
2013-9-28,55,37,24,36,29,22,93,76,42,30.39,30.13,8,1,12,0.08
2013-9-29,62,46,30,35,29,24,83,56,32,30.31,30.03,11,1,18,0.08
2013-9-30,71,52,35,36,30,24,66,44,27,30.06,29.79,12,2,16,0.00
2013-10-1,72,53,38,38,31,28,66,46,24,29.93,29.77,12,1,17,0.00
2013-10-2,69,54,37,35,29,24,63,40,21,29.88,29.70,17,4,25,0.00
2013-10-3,65,52,30,35,29,24,94,44,28,29.72,29.43,25,9,36,0.05
2013-10-4,32,28,23,30,25,19,95,91,79,30.45,29.66,19,4,23,0.20
2013-10-5,44,31,22,28,24,20,98,76,48,30.61,30.45,8,1,13,0.08
2013-10-6,51,36,23,31,25,19,86,66,47,30.60,30.47,5,1,7,0.00
2013-10-7,66,51,32,31,29,27,81,48,25,30.34,30.02,4,1,9,0.00
2013-10-8,65,48,39,32,27,23,60,46,29,29.91,29.65,16,2,22,0.00
2013-10-9,61,49,39,31,28,25,63,46,28,29.74,29.64,10,1,13,0.00
2013-10-10,49,40,32,38,33,25,94,78,40,29.75,29.51,11,2,23,0.21
2013-10-11,43,36,33,37,34,31,99,89,76,30.14,29.76,11,2,17,0.01
2013-10-12,52,39,28,33,28,25,91,69,39,30.23,30.06,17,2,17,0.01
2013-10-13,61,44,32,38,31,25,87,64,35,30.13,29.81,15,2,21,0.02
2013-10-14,41,35,32,38,33,30,95,92,86,30.20,29.81,13,2,17,0.11
2013-10-15,42,25,31,32,-7,-100,94,59,61,30.20,30.11,10,-268,14,0.11
2013-10-16,43,32,26,28,24,20,91,73,40,30.26,30.14,13,2,17,0.00
2013-10-17,48,29,24,29,-2,-100,85,47,37,30.26,30.03,13,-200,22,0.00
2013-10-18,42,32,25,29,22,14,94,71,39,30.34,30.04,15,2,19,0.02
2013-10-19,51,34,21,24,18,-100,77,57,32,30.39,30.15,9,-9,16,0.00
2013-10-20,51,28,30,27,-15,-100,68,35,39,30.20,29.92,12,-313,23,0.00
2013-10-21,52,31,32,30,-4,-100,83,44,37,30.26,30.03,11,-230,22,0.00
2013-10-22,58,34,26,30,-1,-100,79,42,34,30.31,30.14,9,-217,13,0.00
2013-10-23,63,34,33,31,-13,-100,71,32,25,30.20,30.02,10,-315,12,0.00
2013-10-24,56,35,50,30,-15,-100,44,26,28,30.09,29.99,1,-333,5,0.00
2013-10-25,47,15,45,27,-58,-100,51,16,46,30.13,30.07,0,-666,5,0.00
2013-10-26,60,60,60,25,25,25,26,26,26,30.08,30.08,0,0,11,0.00
2013-10-27,53,43,32,27,25,22,66,51,37,30.10,29.84,1,0,3,0.00
2013-10-28,58,51,38,26,23,22,60,37,25,29.82,29.65,18,9,30,0.00
2013-10-29,45,40,32,31,23,19,95,56,35,29.78,29.68,19,12,31,0.03
2013-10-30,32,28,26,29,26,25,94,93,89,30.08,29.89,6,1,12,0.13
2013-10-31,31,28,26,28,26,25,95,91,83,30.25,30.08,5,0,9,0.02
2013-11-1,40,32,25,32,27,21,95,84,60,30.44,30.22,8,2,16,0.02
2013-11-2,54,34,20,29,21,16,87,64,28,30.45,30.01,5,0,9,0.02
2013-11-3,52,40,22,30,22,14,93,53,35,30.01,29.59,25,9,34,0.00
2013-11-4,37,27,16,28,22,13,90,81,65,30.04,29.88,11,1,20,0.02
2013-11-5,29,21,12,23,14,5,92,75,43,30.55,30.05,11,5,17,0.01
2013-11-6,36,21,8,19,11,3,80,66,48,30.78,30.55,5,1,6,0.01
2013-11-7,50,32,17,26,20,13,83,64,38,30.77,30.26,6,0,7,0.00
2013-11-8,52,40,31,25,22,19,70,50,34,30.26,29.99,15,3,19,0.00
2013-11-9,54,39,28,26,22,18,68,52,31,30.29,30.14,9,1,14,0.00
2013-11-10,56,39,28,26,22,18,68,51,29,30.36,30.22,11,1,16,0.00
2013-11-11,56,39,26,26,21,18,71,52,29,30.48,30.33,9,1,11,0.00
2013-11-12,57,39,28,26,19,12,67,47,25,30.59,30.42,5,1,9,0.00
2013-11-13,52,38,26,23,18,12,60,47,29,30.48,30.14,9,1,14,0.00
2013-11-14,48,37,29,28,22,17,76,57,31,30.14,29.82,5,0,11,0.00
2013-11-15,48,36,28,29,22,13,94,59,35,29.82,29.52,26,6,36,0.00
2013-11-16,35,30,26,29,25,23,95,85,70,29.74,29.54,15,4,29,0.01
2013-11-17,33,30,26,26,24,21,86,78,70,30.30,29.76,12,4,18,0.04
2013-11-18,43,33,27,27,23,20,86,67,50,30.44,30.26,5,1,6,0.04
2013-11-19,37,33,22,32,30,16,94,86,76,30.16,29.96,4,0,5,0.03
2013-11-20,42,38,31,36,32,30,95,78,69,29.98,29.84,0,0,0,0.02
2013-11-21,36,29,0,35,23,-100,96,90,90,30.32,0.00,10,-66,15,0.23
2013-11-22,28,24,20,24,20,17,92,86,76,30.50,30.32,24,8,27,0.00
2013-11-23,35,29,25,28,25,23,94,85,72,30.52,30.25,19,5,22,0.06
2013-11-24,31,29,26,30,27,24,95,92,85,30.25,30.08,9,2,13,0.02
2013-11-25,37,28,20,28,23,17,93,84,64,30.47,30.15,7,1,10,0.03
2013-11-26,39,26,17,27,20,14,89,78,56,30.61,30.48,5,1,6,0.01
2013-11-27,41,26,15,24,19,12,86,74,47,30.55,30.32,4,0,5,0.00
2013-11-28,43,29,20,26,20,15,83,70,45,30.38,30.24,6,1,9,0.00
2013-11-29,43,29,20,26,20,16,84,70,48,30.45,30.33,6,0,12,0.00
2013-11-30,41,26,16,25,19,12,87,76,53,30.52,30.38,7,0,11,0.00
2013-12-1,31,23,16,25,20,13,92,88,77,30.54,30.39,4,0,11,0.00
2013-12-2,34,27,23,26,23,20,94,84,71,30.43,29.88,8,0,11,0.00
2013-12-3,38,31,22,28,24,20,94,75,53,29.87,29.37,32,7,32,0.00
2013-12-4,26,9,-5,25,6,-9,94,88,83,30.29,29.32,11,4,18,0.00
2013-12-5,10,-1,-12,6,-5,-16,87,84,81,30.46,30.30,4,1,5,0.01
2013-12-6,10,3,-4,7,-1,-7,86,84,82,30.56,30.45,6,0,8,0.00
2013-12-7,18,12,4,14,9,0,90,87,83,30.55,29.94,3,0,9,0.00
2013-12-8,15,10,3,13,6,-2,91,86,80,30.33,29.88,11,3,15,0.00
2013-12-9,10,2,-8,2,-4,-13,86,77,61,30.94,30.33,11,2,12,0.00
2013-12-10,19,5,-8,9,-2,-13,80,73,62,30.97,30.77,4,0,6,0.00
2013-12-11,30,15,5,18,8,1,84,75,59,30.87,30.77,2,0,3,0.03
2013-12-12,33,18,6,20,11,2,84,74,57,30.87,30.43,5,0,5,0.07
2013-12-13,30,20,10,18,12,6,87,74,57,30.48,30.24,4,0,9,0.01
2013-12-14,31,19,11,17,13,8,88,77,56,30.72,30.48,2,0,5,0.00
2013-12-15,37,24,16,22,16,11,83,71,53,30.75,30.61,3,0,6,0.00
2013-12-16,42,27,18,25,18,13,82,69,47,30.66,30.55,4,1,6,0.00
2013-12-17,43,28,17,23,17,11,79,65,44,30.69,30.45,5,0,5,0.00
2013-12-18,42,30,20,21,17,13,75,61,43,30.44,29.92,8,0,9,0.00
2013-12-19,42,33,24,27,22,17,88,66,47,29.95,29.66,16,2,21,0.00
2013-12-20,30,25,19,27,23,17,94,92,80,29.83,29.70,13,2,16,0.04
2013-12-21,23,18,11,20,16,7,92,89,84,30.16,29.76,8,1,11,0.00
2013-12-22,24,18,12,18,14,9,90,84,69,30.54,30.17,9,1,13,0.01
2013-12-23,30,22,18,22,18,15,89,84,71,30.69,30.52,6,0,8,0.00
2013-12-24,28,22,9,23,17,4,92,83,74,30.65,30.36,16,2,20,0.00
2013-12-25,29,15,4,14,7,-1,86,72,54,30.86,30.65,4,0,6,0.00
2013-12-26,30,21,8,15,11,4,81,66,54,30.82,30.69,5,1,6,0.02
2013-12-27,36,22,14,21,13,8,81,70,51,30.75,30.46,4,2,6,0.01
2013-12-28,34,25,17,21,17,12,86,72,56,30.45,30.13,4,0,9,0.00
2013-12-29,29,22,14,18,14,7,85,72,55,30.42,30.20,10,1,13,0.00
2013-12-30,37,23,15,18,12,8,79,66,46,30.61,30.41,2,0,5,0.00
2013-12-31,29,23,17,23,18,10,92,80,71,30.52,30.32,4,0,9,0.02
2014-1-1,33,24,15,23,17,8,93,76,48,30.55,30.26,14,4,22,0.06
2014-1-2,38,21,9,17,9,4,81,62,40,30.66,30.48,5,0,6,0.01